createdAt,value
2019-05-02T00:03:30.433Z,24.30
2019-05-02T00:08:36.099Z,20.60
2019-05-02T00:13:41.862Z,23.60
2019-05-02T00:18:47.279Z,24.83
2019-05-02T00:23:52.660Z,25.77
2019-05-02T00:28:58.017Z,24.07
2019-05-02T00:34:03.489Z,25.73
2019-05-02T00:39:13.846Z,26.13
2019-05-02T00:44:18.252Z,27.57
2019-05-02T00:49:23.654Z,27.83
2019-05-02T00:54:29.115Z,27.83
2019-05-02T00:59:37.807Z,27.70
2019-05-02T01:04:43.286Z,29.03
2019-05-02T01:09:48.949Z,28.80
2019-05-02T01:14:54.618Z,29.87
2019-05-02T01:20:00.153Z,30.23
2019-05-02T01:25:06.214Z,29.50
2019-05-02T01:30:25.207Z,32.43
2019-05-02T01:35:38.809Z,36.03
2019-05-02T01:40:53.314Z,34.80
2019-05-02T01:45:55.375Z,33.90
2019-05-02T01:51:04.663Z,33.33
2019-05-02T01:56:07.940Z,34.03
2019-05-02T02:01:16.228Z,32.43
2019-05-02T02:06:20.233Z,33.53
2019-05-02T02:11:28.492Z,33.30
2019-05-02T02:16:35.212Z,35.67
2019-05-02T02:22:02.761Z,33.13
2019-05-02T02:27:07.203Z,35.73
2019-05-02T02:32:12.608Z,36.27
2019-05-02T02:37:19.378Z,35.53
2019-05-02T02:42:31.451Z,35.53
2019-05-02T02:47:32.089Z,36.53
2019-05-02T02:52:44.405Z,35.37
2019-05-02T02:57:44.432Z,37.00
2019-05-02T03:02:50.143Z,35.00
2019-05-02T03:07:59.772Z,38.17
2019-05-02T03:13:21.675Z,36.70
2019-05-02T03:18:39.989Z,36.27
2019-05-02T03:23:34.789Z,37.00
2019-05-02T03:28:41.679Z,39.00
2019-05-02T03:34:00.149Z,40.23
2019-05-02T03:38:54.888Z,39.73
2019-05-02T03:44:10.537Z,40.23
2019-05-02T03:49:09.701Z,39.63
2019-05-02T03:54:19.846Z,39.10
2019-05-02T03:59:37.512Z,40.00
2019-05-02T04:04:31.964Z,41.47
2019-05-02T04:09:42.151Z,40.17
2019-05-02T04:14:47.455Z,42.67
2019-05-02T04:19:53.227Z,38.43
2019-05-02T04:24:58.850Z,40.53
2019-05-02T04:30:11.366Z,42.77
2019-05-02T04:35:13.064Z,41.00
2019-05-02T04:40:19.098Z,40.67
2019-05-02T04:45:29.243Z,40.10
2019-05-02T04:50:31.685Z,41.50
2019-05-02T04:55:38.040Z,41.40
2019-05-02T05:00:45.010Z,40.33
2019-05-02T05:05:51.707Z,40.00
2019-05-02T05:10:57.435Z,40.73
2019-05-02T05:16:08.132Z,41.60
2019-05-02T05:21:12.852Z,39.97
2019-05-02T05:26:33.895Z,39.93
2019-05-02T05:31:38.348Z,42.83
2019-05-02T05:36:44.100Z,42.23
2019-05-02T05:41:53.595Z,42.87
2019-05-02T05:47:02.225Z,45.40
2019-05-02T05:52:10.372Z,47.13
2019-05-02T05:57:17.426Z,45.80
2019-05-02T06:02:23.098Z,44.70
2019-05-02T06:07:32.835Z,44.00
2019-05-02T06:12:35.935Z,47.50
2019-05-02T06:17:42.710Z,45.40
2019-05-02T06:22:48.485Z,45.10
2019-05-02T06:27:54.718Z,43.47
2019-05-02T06:33:01.416Z,40.50
2019-05-02T06:38:08.125Z,42.37
2019-05-02T06:43:18.943Z,42.03
2019-05-02T06:48:42.466Z,40.73
2019-05-02T06:53:54.352Z,41.67
2019-05-02T06:59:17.877Z,40.43
2019-05-02T07:04:23.091Z,41.43
2019-05-02T07:09:40.590Z,40.73
2019-05-02T07:14:37.198Z,40.77
2019-05-02T07:19:47.052Z,38.37
2019-05-02T07:24:54.907Z,41.93
2019-05-02T07:30:15.465Z,41.27
2019-05-02T07:35:28.188Z,40.17
2019-05-02T07:40:42.543Z,41.67
2019-05-02T07:45:57.522Z,42.57
2019-05-02T07:51:06.810Z,42.23
2019-05-02T07:56:17.012Z,42.00
2019-05-02T08:01:19.537Z,41.87
2019-05-02T08:06:46.463Z,43.03
2019-05-02T08:12:39.192Z,44.03
2019-05-02T08:18:42.093Z,44.30
2019-05-02T08:24:21.917Z,42.17
2019-05-02T08:29:42.179Z,37.87
2019-05-02T08:35:19.476Z,37.83
2019-05-02T08:40:47.895Z,43.20
2019-05-02T08:46:09.417Z,38.23
2019-05-02T08:51:24.535Z,39.47
2019-05-02T08:56:42.396Z,38.83
2019-05-02T09:01:56.439Z,40.80
2019-05-02T09:07:09.684Z,43.03
2019-05-02T09:12:31.970Z,41.10
2019-05-02T09:17:56.107Z,39.07
2019-05-02T09:23:09.459Z,40.07
2019-05-02T09:28:26.563Z,39.83
2019-05-02T09:33:45.210Z,39.53
2019-05-02T09:38:57.655Z,40.30
2019-05-02T09:44:19.113Z,39.10
2019-05-02T09:49:34.770Z,41.57
2019-05-02T09:54:47.832Z,37.07
2019-05-02T10:00:04.626Z,35.40
2019-05-02T10:05:19.519Z,34.93
2019-05-02T10:10:44.285Z,37.23
2019-05-02T10:15:58.013Z,38.27
2019-05-02T10:21:26.393Z,37.97
2019-05-02T10:27:04.001Z,36.73
2019-05-02T10:32:26.240Z,37.80
2019-05-02T10:37:47.615Z,34.27
2019-05-02T10:43:07.765Z,34.63
2019-05-02T10:48:37.223Z,31.67
2019-05-02T10:54:20.671Z,30.90
2019-05-02T10:59:37.544Z,32.00
2019-05-02T11:05:05.925Z,32.30
2019-05-02T11:10:27.879Z,30.47
2019-05-02T11:16:09.759Z,29.97
2019-05-02T11:21:26.344Z,31.17
2019-05-02T11:26:43.029Z,32.73
2019-05-02T11:31:49.706Z,30.67
2019-05-02T11:36:55.355Z,29.20
2019-05-02T11:42:02.073Z,30.57
2019-05-02T11:47:08.808Z,27.50
2019-05-02T11:52:14.266Z,37.23
2019-05-02T11:57:28.472Z,35.10
2019-05-02T12:08:52.790Z,33.93
2019-05-02T12:14:09.252Z,29.27
2019-05-02T12:19:23.722Z,25.30
2019-05-02T12:24:45.266Z,33.17
2019-05-02T12:35:26.269Z,34.07
2019-05-02T12:40:32.545Z,31.33
2019-05-02T12:45:48.982Z,27.77
2019-05-02T12:50:55.203Z,26.77
2019-05-02T12:56:02.233Z,28.23
2019-05-02T13:01:12.255Z,30.00
2019-05-02T13:06:22.006Z,28.63
2019-05-02T13:11:45.928Z,31.43
2019-05-02T13:17:01.367Z,31.93
2019-05-02T13:22:45.160Z,30.23
2019-05-02T13:28:17.047Z,28.20
2019-05-02T13:33:58.635Z,32.30
2019-05-02T13:39:22.006Z,31.30
2019-05-02T13:44:44.566Z,31.80
2019-05-02T13:49:59.124Z,31.07
2019-05-02T13:55:44.394Z,27.77
2019-05-02T14:01:03.417Z,26.90
2019-05-02T14:06:22.019Z,23.80
2019-05-02T14:11:50.164Z,23.30
2019-05-02T14:17:27.629Z,20.57
2019-05-02T14:22:52.755Z,20.53
2019-05-02T14:28:14.256Z,19.43
2019-05-02T14:33:33.226Z,20.27
2019-05-02T14:38:41.900Z,19.20
2019-05-02T14:44:09.054Z,19.20
2019-05-02T14:50:02.261Z,18.63
2019-05-02T14:55:25.582Z,17.30
2019-05-02T15:00:47.429Z,18.50
2019-05-02T15:06:04.197Z,22.40
2019-05-02T15:11:30.580Z,24.47
2019-05-02T15:16:45.340Z,23.37
2019-05-02T15:22:04.471Z,22.80
2019-05-02T15:27:17.693Z,24.83
2019-05-02T15:32:53.499Z,27.27
2019-05-02T15:38:08.273Z,24.10
2019-05-02T15:43:15.363Z,21.90
2019-05-02T15:48:27.488Z,21.33
2019-05-02T15:54:02.664Z,22.23
2019-05-02T15:58:58.003Z,20.67
2019-05-02T16:04:06.372Z,17.73
2019-05-02T16:09:11.963Z,19.10
2019-05-02T16:14:20.518Z,17.33
2019-05-02T16:19:29.396Z,18.63
2019-05-02T16:24:36.012Z,17.73
2019-05-02T16:29:43.824Z,18.23
2019-05-02T16:35:07.269Z,17.70
2019-05-02T16:40:12.017Z,18.20
2019-05-02T16:45:22.243Z,18.47
2019-05-02T16:50:34.714Z,17.70
2019-05-02T16:55:36.025Z,17.57
2019-05-02T17:00:45.557Z,17.87
2019-05-02T17:05:50.074Z,17.83
2019-05-02T17:10:59.395Z,18.47
2019-05-02T17:16:13.147Z,17.73
2019-05-02T17:21:13.977Z,16.67
2019-05-02T17:26:19.916Z,16.27
2019-05-02T17:31:25.635Z,16.73
2019-05-02T17:36:32.512Z,16.40
2019-05-02T17:41:42.358Z,15.83
2019-05-02T17:46:50.798Z,15.53
2019-05-02T17:52:20.866Z,15.90
2019-05-02T17:57:28.574Z,14.73
2019-05-02T18:02:33.940Z,14.57
2019-05-02T18:07:41.847Z,15.50
2019-05-02T18:12:55.869Z,14.63
2019-05-02T18:17:59.718Z,14.10
2019-05-02T18:23:05.748Z,14.30
2019-05-02T18:28:14.031Z,14.17
2019-05-02T18:33:17.553Z,13.87
2019-05-02T18:38:23.162Z,12.73
2019-05-02T18:43:28.799Z,13.63
2019-05-02T18:48:36.602Z,14.00
2019-05-02T18:53:43.141Z,13.47
2019-05-02T18:58:48.718Z,14.33
2019-05-02T19:03:56.326Z,15.40
2019-05-02T19:09:06.532Z,14.40
2019-05-02T19:14:16.622Z,15.33
2019-05-02T19:19:22.608Z,15.30
2019-05-02T19:24:32.883Z,14.03
2019-05-02T19:29:36.637Z,15.53
2019-05-02T19:34:42.105Z,13.00
2019-05-02T19:39:52.403Z,16.77
2019-05-02T19:45:03.675Z,17.43
2019-05-02T19:50:07.600Z,16.47
2019-05-02T19:55:19.906Z,17.50
2019-05-02T20:00:22.166Z,15.60
2019-05-02T20:05:32.561Z,15.70
2019-05-02T20:10:42.348Z,15.50
2019-05-02T20:16:06.507Z,17.27
2019-05-02T20:21:32.539Z,15.53
2019-05-02T20:26:37.806Z,16.20
2019-05-02T20:31:43.653Z,16.43
2019-05-02T20:36:49.136Z,15.80
2019-05-02T20:41:54.634Z,16.17
2019-05-02T20:47:02.577Z,15.80
2019-05-02T20:52:08.477Z,15.97
2019-05-02T20:57:14.055Z,16.13
2019-05-02T21:02:19.641Z,17.27
2019-05-02T21:07:33.057Z,15.27
2019-05-02T21:12:38.719Z,17.33
2019-05-02T21:17:46.106Z,17.57
2019-05-02T21:22:52.930Z,19.27
2019-05-02T21:27:59.968Z,17.17
2019-05-02T21:33:06.728Z,16.10
2019-05-02T21:38:13.847Z,16.40
2019-05-02T21:43:19.450Z,16.43
2019-05-02T21:48:26.593Z,17.47
2019-05-02T21:53:56.020Z,19.97
2019-05-02T21:59:06.294Z,16.17
2019-05-02T22:04:13.329Z,16.63
2019-05-02T22:09:19.130Z,16.73
2019-05-02T22:14:24.511Z,14.80
2019-05-02T22:19:29.907Z,15.33
2019-05-02T22:24:35.602Z,14.47
2019-05-02T22:29:42.898Z,13.93
2019-05-02T22:34:48.407Z,14.23
2019-05-02T22:39:58.425Z,13.90
2019-05-02T22:45:04.590Z,13.97
2019-05-02T22:50:13.880Z,13.07
2019-05-02T22:55:18.056Z,15.03
2019-05-02T23:00:23.614Z,13.40
2019-05-02T23:05:28.932Z,14.57
2019-05-02T23:10:34.522Z,15.17
2019-05-02T23:15:40.009Z,15.73
2019-05-02T23:20:45.293Z,15.50
2019-05-02T23:26:08.982Z,14.97
2019-05-02T23:31:14.436Z,15.83
2019-05-02T23:36:22.212Z,17.00
2019-05-02T23:41:27.828Z,16.53
2019-05-02T23:46:34.339Z,16.70
2019-05-02T23:51:39.818Z,19.20
2019-05-02T23:56:45.254Z,18.70
